Time;durP1;ratioP1;P1;durP2;ratioP2;P2;SDS_P1;SDS_P2;PMS_P1;PMS_P2;Temp;Humidity;BMP_temperature;BMP_pressure;BME280_temperature;BME280_humidity;BME280_pressure;Samples;Min_cycle;Max_cycle;Signal;HPM_P1;HPM_P2
2022/06/27 00:01:21;;;;;;;1.27;1.23;;;36.80;31.70;;;;;;5083364;28;20545;-64
2022/06/27 00:03:52;;;;;;;1.60;1.03;;;36.90;30.30;;;;;;5070519;28;20486;-63
2022/06/27 00:06:24;;;;;;;1.20;1.20;;;36.90;30.60;;;;;;5078466;28;20459;-63
2022/06/27 00:08:54;;;;;;;1.23;1.23;;;36.80;30.30;;;;;;5077565;28;20467;-63
2022/06/27 00:11:25;;;;;;;1.00;1.00;;;36.80;31.90;;;;;;5079836;28;20496;-64
2022/06/27 00:13:56;;;;;;;1.30;1.20;;;36.70;32.60;;;;;;5080127;28;20847;-63
2022/06/27 00:16:28;;;;;;;1.30;1.20;;;36.70;34.20;;;;;;5080839;28;20455;-62
2022/06/27 00:19:19;;;;;;;1.40;1.30;;;36.80;31.90;;;;;;5081665;28;20519;-63
2022/06/27 00:21:50;;;;;;;1.13;1.03;;;36.90;32.40;;;;;;5081264;28;20454;-63
2022/06/27 00:24:21;;;;;;;1.30;1.30;;;36.90;32.50;;;;;;5078951;28;20496;-63
2022/06/27 00:26:52;;;;;;;1.47;1.37;;;36.90;32.00;;;;;;5081866;28;20446;-63
2022/06/27 00:29:22;;;;;;;1.57;1.47;;;37.00;33.10;;;;;;5079605;28;21003;-63
2022/06/27 00:31:55;;;;;;;1.73;1.27;;;37.00;32.30;;;;;;5082170;28;20484;-63
2022/06/27 00:34:26;;;;;;;1.33;1.30;;;36.90;32.10;;;;;;5083012;28;20456;-63
2022/06/27 00:36:57;;;;;;;1.10;1.10;;;36.90;32.90;;;;;;5080598;28;20937;-62
2022/06/27 00:39:27;;;;;;;1.20;1.20;;;36.80;32.20;;;;;;5081456;28;20484;-63
2022/06/27 00:41:58;;;;;;;1.13;1.13;;;36.80;31.90;;;;;;5080103;28;20458;-62
2022/06/27 00:44:34;;;;;;;1.03;1.03;;;36.90;30.10;;;;;;5082496;28;20450;-63
2022/06/27 00:47:08;;;;;;;1.40;1.30;;;36.70;32.70;;;;;;5081704;28;20470;-64
2022/06/27 00:49:40;;;;;;;1.20;1.20;;;36.80;34.30;;;;;;5082840;28;20455;-64
2022/06/27 00:52:12;;;;;;;1.50;1.50;;;36.80;33.40;;;;;;5081474;28;20500;-62
2022/06/27 00:54:48;;;;;;;1.60;1.50;;;36.80;33.20;;;;;;5081880;28;20458;-61
2022/06/27 00:57:19;;;;;;;1.37;1.37;;;36.80;33.20;;;;;;5081561;28;20461;-63
2022/06/27 00:59:50;;;;;;;1.40;1.40;;;36.80;33.10;;;;;;5081995;28;20925;-63
2022/06/27 01:02:22;;;;;;;1.40;1.30;;;36.80;34.20;;;;;;5081404;28;20450;-63
2022/06/27 01:04:54;;;;;;;1.77;1.67;;;36.80;35.10;;;;;;5082444;28;20501;-63
2022/06/27 01:07:24;;;;;;;1.60;1.30;;;36.70;37.70;;;;;;5081072;28;20464;-63
2022/06/27 01:09:56;;;;;;;1.80;1.70;;;36.50;34.80;;;;;;5082033;28;20600;-63
2022/06/27 01:12:27;;;;;;;2.20;1.73;;;36.40;34.50;;;;;;5080697;28;20625;-63
2022/06/27 01:14:58;;;;;;;1.70;1.60;;;36.40;36.90;;;;;;5081603;28;20455;-64
2022/06/27 01:17:31;;;;;;;2.13;2.03;;;36.30;35.40;;;;;;5081824;28;20446;-64
2022/06/27 01:20:01;;;;;;;2.03;1.93;;;36.30;36.60;;;;;;5080899;28;20461;-64
2022/06/27 01:22:35;;;;;;;2.00;1.90;;;36.20;36.80;;;;;;5082166;28;20474;-63
2022/06/27 01:25:09;;;;;;;1.60;1.57;;;36.10;36.60;;;;;;5081833;28;20917;-63
2022/06/27 01:27:42;;;;;;;1.87;1.77;;;36.10;35.70;;;;;;5079025;28;20464;-64
2022/06/27 01:30:14;;;;;;;1.77;1.67;;;36.00;36.90;;;;;;5076101;28;20463;-65
2022/06/27 01:32:45;;;;;;;2.10;2.00;;;35.80;37.90;;;;;;5076852;28;20648;-64
2022/06/27 01:35:15;;;;;;;1.87;1.77;;;35.80;36.70;;;;;;5080206;28;20447;-64
2022/06/27 01:37:48;;;;;;;2.20;2.10;;;35.70;37.30;;;;;;5078196;28;20482;-63
2022/06/27 01:40:19;;;;;;;1.87;1.77;;;35.60;38.10;;;;;;5075040;28;20449;-64
2022/06/27 01:42:50;;;;;;;1.90;1.80;;;35.60;37.20;;;;;;5081161;28;21026;-64
2022/06/27 01:45:21;;;;;;;1.70;1.60;;;35.50;38.10;;;;;;5081487;28;20465;-64
2022/06/27 01:47:51;;;;;;;2.50;2.30;;;35.40;37.30;;;;;;5080313;28;20448;-65
2022/06/27 01:50:25;;;;;;;1.70;1.60;;;35.40;39.30;;;;;;5079080;28;20478;-63
2022/06/27 01:53:05;;;;;;;2.00;1.90;;;35.20;37.90;;;;;;5082372;28;20546;-63
2022/06/27 01:55:36;;;;;;;1.90;1.80;;;35.20;38.20;;;;;;5072014;28;20466;-63
2022/06/27 01:58:07;;;;;;;2.03;1.93;;;35.10;38.80;;;;;;5083859;28;20498;-64
2022/06/27 02:00:38;;;;;;;1.97;1.87;;;35.10;40.30;;;;;;5085171;28;20552;-64
2022/06/27 02:03:09;;;;;;;2.30;2.20;;;34.90;40.00;;;;;;5085924;28;20458;-64
2022/06/27 02:05:45;;;;;;;1.40;1.40;;;34.90;38.80;;;;;;5085313;28;20578;-64
2022/06/27 02:08:23;;;;;;;1.93;1.83;;;34.80;39.30;;;;;;5084321;28;20473;-63
2022/06/27 02:10:54;;;;;;;1.90;1.80;;;34.70;40.00;;;;;;5084113;28;20453;-64
2022/06/27 02:13:25;;;;;;;2.20;2.10;;;34.60;39.40;;;;;;5080924;28;20522;-64
2022/06/27 02:16:07;;;;;;;2.30;2.20;;;34.50;40.50;;;;;;5083533;28;20451;-64
2022/06/27 02:18:40;;;;;;;2.73;2.57;;;34.40;41.50;;;;;;5084872;28;20464;-64
2022/06/27 02:21:13;;;;;;;2.40;2.30;;;34.40;41.80;;;;;;5079738;28;20435;-64
2022/06/27 02:24:08;;;;;;;2.50;2.30;;;34.30;41.90;;;;;;5083944;28;20494;-65
2022/06/27 02:26:40;;;;;;;1.90;1.80;;;34.20;41.80;;;;;;5085094;28;20456;-65
2022/06/27 02:29:11;;;;;;;2.40;2.30;;;34.00;42.00;;;;;;5069818;28;20475;-65
2022/06/27 02:31:50;;;;;;;1.90;1.80;;;33.90;42.10;;;;;;5085147;28;20532;-66
2022/06/27 02:34:21;;;;;;;1.70;1.60;;;33.70;41.80;;;;;;5083561;28;20470;-65
2022/06/27 02:36:53;;;;;;;1.67;1.57;;;33.50;41.40;;;;;;5082761;28;20451;-65
2022/06/27 02:39:29;;;;;;;2.03;1.93;;;33.40;42.90;;;;;;5084583;28;20459;-66
2022/06/27 02:42:13;;;;;;;1.70;1.60;;;33.10;43.20;;;;;;5084062;28;20562;-65
2022/06/27 02:44:44;;;;;;;2.17;2.07;;;33.00;42.80;;;;;;5084322;28;20455;-66
2022/06/27 02:47:20;;;;;;;1.80;1.70;;;32.80;43.70;;;;;;5084256;28;20463;-65
2022/06/27 02:49:51;;;;;;;1.90;1.80;;;32.70;43.80;;;;;;5085203;28;20460;-66
2022/06/27 02:52:32;;;;;;;1.70;1.60;;;32.60;44.80;;;;;;5082411;28;20498;-66
2022/06/27 02:55:06;;;;;;;2.30;2.20;;;32.40;44.00;;;;;;5084494;28;20450;-66
2022/06/27 02:57:45;;;;;;;2.60;2.40;;;32.40;47.20;;;;;;5084772;28;20465;-66
2022/06/27 03:00:17;;;;;;;2.57;2.43;;;32.50;46.30;;;;;;5084984;28;20464;-66
2022/06/27 03:02:48;;;;;;;2.80;2.70;;;32.50;45.90;;;;;;5083935;28;20468;-66
2022/06/27 03:05:19;;;;;;;2.70;2.50;;;32.50;46.80;;;;;;5083603;28;20838;-66
2022/06/27 03:07:50;;;;;;;2.20;2.10;;;32.50;47.20;;;;;;5083175;28;20500;-66
2022/06/27 03:10:24;;;;;;;2.30;2.20;;;32.40;47.00;;;;;;5082967;28;20454;-66
2022/06/27 03:12:54;;;;;;;2.67;2.53;;;32.30;49.60;;;;;;5081896;28;20504;-65
2022/06/27 03:15:25;;;;;;;2.63;2.53;;;32.20;48.20;;;;;;5082847;28;20466;-65
2022/06/27 03:17:56;;;;;;;2.53;2.43;;;32.00;49.70;;;;;;5081819;28;20956;-65
2022/06/27 03:20:27;;;;;;;2.40;2.30;;;31.80;51.20;;;;;;5080848;28;20468;-66
2022/06/27 03:22:57;;;;;;;2.50;2.40;;;31.70;52.60;;;;;;5084260;28;20515;-65
2022/06/27 03:25:30;;;;;;;3.20;3.00;;;31.50;53.10;;;;;;5073676;28;20464;-65
2022/06/27 03:28:01;;;;;;;3.00;2.80;;;31.30;52.20;;;;;;5084105;28;20468;-65
2022/06/27 03:30:32;;;;;;;3.13;2.93;;;31.20;52.90;;;;;;5082268;28;20458;-64
2022/06/27 03:33:03;;;;;;;2.80;2.60;;;31.00;54.00;;;;;;5080591;28;20498;-65
2022/06/27 03:35:34;;;;;;;4.50;3.00;;;30.90;55.60;;;;;;5080823;28;20454;-65
2022/06/27 03:38:05;;;;;;;3.33;3.03;;;30.70;55.20;;;;;;5082915;28;20474;-66
2022/06/27 03:40:37;;;;;;;3.87;3.67;;;30.60;55.80;;;;;;5084938;28;20486;-66
2022/06/27 03:43:08;;;;;;;3.37;3.17;;;30.60;56.10;;;;;;5084158;28;20458;-66
2022/06/27 03:45:39;;;;;;;3.37;3.17;;;30.50;55.90;;;;;;5080544;28;20460;-66
2022/06/27 03:49:59;;;;;;;3.30;3.10;;;30.50;57.70;;;;;;5083020;28;20471;-65
2022/06/27 03:51:00;;;;;;;3.25;3.05;;;30.30;58.30;;;;;;5081152;28;20462;-64
2022/06/27 03:53:31;;;;;;;2.87;2.73;;;30.10;59.70;;;;;;5073307;28;20235;-65
2022/06/27 03:56:04;;;;;;;3.60;3.30;;;30.00;60.90;;;;;;5083933;28;20565;-65
2022/06/27 03:58:35;;;;;;;2.77;2.67;;;29.70;62.40;;;;;;5083301;28;20473;-65
2022/06/27 04:01:06;;;;;;;2.93;2.80;;;29.50;64.00;;;;;;5082088;28;20547;-65
2022/06/27 04:03:36;;;;;;;2.90;2.80;;;29.30;67.70;;;;;;5082657;28;20458;-65
2022/06/27 04:06:08;;;;;;;4.40;4.10;;;29.10;64.50;;;;;;5082803;28;20450;-65
2022/06/27 04:08:38;;;;;;;3.40;3.20;;;29.00;65.10;;;;;;5082756;28;20475;-64
2022/06/27 04:11:11;;;;;;;3.60;3.40;;;28.90;68.10;;;;;;5081786;28;20475;-65
2022/06/27 04:13:45;;;;;;;4.10;3.80;;;28.80;69.50;;;;;;5083219;28;20513;-65
2022/06/27 04:16:16;;;;;;;4.07;3.77;;;28.70;70.70;;;;;;5082830;28;20464;-65
2022/06/27 04:18:58;;;;;;;3.50;3.30;;;28.60;74.30;;;;;;5082774;28;20479;-65
2022/06/27 04:21:53;;;;;;;3.90;3.70;;;28.40;77.50;;;;;;5076240;28;20471;-65
2022/06/27 04:24:24;;;;;;;4.17;3.57;;;28.20;77.10;;;;;;5081815;28;20474;-64
2022/06/27 04:26:57;;;;;;;3.10;2.87;;;28.10;72.40;;;;;;5081328;28;20547;-65
2022/06/27 04:29:30;;;;;;;3.17;2.90;;;28.10;69.70;;;;;;5080761;28;20465;-65
2022/06/27 04:32:00;;;;;;;8.33;7.53;;;28.10;69.20;;;;;;5083029;28;20467;-65
2022/06/27 04:34:31;;;;;;;5.10;4.70;;;28.20;69.90;;;;;;5081841;28;20479;-64
2022/06/27 04:37:03;;;;;;;4.90;4.43;;;28.20;70.10;;;;;;5080635;28;20450;-65
2022/06/27 04:39:34;;;;;;;4.37;4.07;;;28.10;69.90;;;;;;5082836;28;20450;-64
2022/06/27 04:42:08;;;;;;;4.43;4.13;;;28.10;70.60;;;;;;5080862;28;20487;-65
2022/06/27 04:44:42;;;;;;;4.60;4.30;;;28.00;71.70;;;;;;5075623;28;20451;-64
2022/06/27 04:47:14;;;;;;;3.90;3.67;;;27.90;72.50;;;;;;5081463;28;20450;-64
2022/06/27 04:49:44;;;;;;;4.70;4.33;;;27.70;74.50;;;;;;5075266;28;20464;-64
2022/06/27 04:52:16;;;;;;;4.20;3.90;;;27.60;75.00;;;;;;5080381;28;21226;-65
2022/06/27 04:54:47;;;;;;;3.80;3.60;;;27.40;82.10;;;;;;5082845;28;20456;-64
2022/06/27 04:57:19;;;;;;;4.47;4.13;;;27.30;81.80;;;;;;5080964;28;20464;-64
2022/06/27 04:59:51;;;;;;;3.87;3.67;;;27.10;83.60;;;;;;5080677;28;20567;-65
2022/06/27 05:02:23;;;;;;;3.93;3.70;;;26.90;85.20;;;;;;5080364;28;20978;-64
2022/06/27 05:04:53;;;;;;;5.50;5.03;;;26.80;86.40;;;;;;5079386;28;20943;-64
2022/06/27 05:07:24;;;;;;;5.97;5.57;;;26.70;85.40;;;;;;5070427;28;20448;-64
2022/06/27 05:09:56;;;;;;;5.53;5.13;;;26.60;85.50;;;;;;5075415;28;20539;-65
2022/06/27 05:12:29;;;;;;;4.60;4.30;;;26.60;88.60;;;;;;5080649;28;20467;-64
2022/06/27 05:15:00;;;;;;;5.00;4.60;;;26.50;86.20;;;;;;5071479;28;20776;-64
2022/06/27 05:17:31;;;;;;;4.67;4.37;;;26.40;87.10;;;;;;5075439;28;20457;-64
2022/06/27 05:20:02;;;;;;;4.00;3.73;;;26.30;90.10;;;;;;5067329;28;20450;-64
2022/06/27 05:22:33;;;;;;;4.03;3.83;;;26.20;86.80;;;;;;5075476;28;20550;-65
2022/06/27 05:25:04;;;;;;;3.90;3.60;;;26.30;83.50;;;;;;5081026;28;20827;-64
2022/06/27 05:27:36;;;;;;;4.90;4.50;;;26.40;81.80;;;;;;5081357;28;20466;-65
2022/06/27 05:30:09;;;;;;;4.50;4.20;;;26.50;83.10;;;;;;5074838;28;20444;-65
2022/06/27 05:32:40;;;;;;;4.90;4.50;;;26.60;84.50;;;;;;5079074;28;20799;-65
2022/06/27 05:35:11;;;;;;;4.40;4.10;;;26.60;84.70;;;;;;5078238;28;20844;-64
2022/06/27 05:37:43;;;;;;;5.03;4.53;;;26.40;88.30;;;;;;5078690;28;20458;-64
2022/06/27 05:40:16;;;;;;;4.20;3.90;;;26.30;87.70;;;;;;5079979;28;20458;-64
2022/06/27 05:42:49;;;;;;;3.87;3.67;;;26.10;89.40;;;;;;5082225;28;20548;-64
2022/06/27 05:45:20;;;;;;;4.33;4.10;;;25.90;89.90;;;;;;5082301;28;20465;-64
2022/06/27 05:47:59;;;;;;;4.80;4.50;;;25.80;90.60;;;;;;5082204;28;20459;-64
2022/06/27 05:50:30;;;;;;;4.20;4.00;;;25.70;92.60;;;;;;5080057;28;20536;-63
2022/06/27 05:53:03;;;;;;;4.43;4.13;;;25.50;92.70;;;;;;5071386;28;20523;-64
2022/06/27 05:55:35;;;;;;;4.20;3.90;;;25.40;94.70;;;;;;5076625;28;20470;-64
2022/06/27 05:58:08;;;;;;;4.77;4.47;;;25.40;92.70;;;;;;5077955;28;20465;-64
2022/06/27 06:00:39;;;;;;;4.70;4.30;;;25.30;92.70;;;;;;5081313;28;20453;-63
2022/06/27 06:03:10;;;;;;;3.93;3.53;;;25.40;95.00;;;;;;5063296;28;20461;-63
2022/06/27 06:05:45;;;;;;;4.27;3.87;;;25.30;93.20;;;;;;5079621;28;20533;-65
2022/06/27 06:08:16;;;;;;;4.40;4.10;;;25.20;94.10;;;;;;5079888;28;20462;-64
2022/06/27 06:10:47;;;;;;;4.30;4.00;;;25.20;93.00;;;;;;5080809;28;20538;-64
2022/06/27 06:13:19;;;;;;;4.17;3.87;;;25.10;95.90;;;;;;5081787;28;20548;-64
2022/06/27 06:15:50;;;;;;;3.73;3.53;;;25.00;98.40;;;;;;5081778;28;20894;-64
2022/06/27 06:18:23;;;;;;;4.67;4.37;;;25.00;99.30;;;;;;5081008;28;20464;-64
2022/06/27 06:20:53;;;;;;;4.40;4.10;;;24.90;97.70;;;;;;5079926;28;20457;-64
2022/06/27 06:23:25;;;;;;;4.53;4.20;;;24.80;99.50;;;;;;5081611;28;20479;-64
2022/06/27 06:25:56;;;;;;;4.77;4.47;;;24.70;98.30;;;;;;5081031;28;20456;-63
2022/06/27 06:28:30;;;;;;;5.20;4.80;;;24.60;97.70;;;;;;5081765;28;20759;-64
2022/06/27 06:31:01;;;;;;;4.97;4.57;;;24.60;99.10;;;;;;5081262;28;20455;-63
2022/06/27 06:33:32;;;;;;;4.50;4.20;;;24.50;99.90;;;;;;5080291;28;20575;-63
2022/06/27 06:36:03;;;;;;;4.73;4.43;;;24.40;99.90;;;;;;5079198;28;20509;-63
2022/06/27 06:38:35;;;;;;;4.30;4.00;;;24.40;99.90;;;;;;5084699;28;20535;-63
2022/06/27 06:41:06;;;;;;;4.60;4.30;;;24.30;99.90;;;;;;5083383;28;20467;-63
2022/06/27 06:43:38;;;;;;;4.73;4.43;;;24.30;99.90;;;;;;5084500;28;20486;-63
2022/06/27 06:46:10;;;;;;;4.47;4.17;;;24.30;99.90;;;;;;5084329;28;20451;-63
2022/06/27 06:48:41;;;;;;;4.87;4.50;;;24.20;99.90;;;;;;5082947;28;20943;-63
2022/06/27 06:51:18;;;;;;;4.20;3.90;;;24.20;99.90;;;;;;5082743;28;20456;-63
2022/06/27 06:53:49;;;;;;;5.03;4.73;;;24.10;99.90;;;;;;5082981;28;20506;-63
2022/06/27 06:56:20;;;;;;;4.40;4.20;;;24.00;99.90;;;;;;5083649;28;20477;-63
2022/06/27 06:58:52;;;;;;;4.20;3.93;;;24.10;99.90;;;;;;5084970;28;20453;-63
2022/06/27 07:01:23;;;;;;;4.40;4.10;;;24.00;99.90;;;;;;5083820;28;20467;-63
2022/06/27 07:03:54;;;;;;;4.43;4.13;;;24.00;99.90;;;;;;5084346;28;20470;-63
2022/06/27 07:06:28;;;;;;;5.83;4.20;;;24.00;99.90;;;;;;5082680;28;21037;-63
2022/06/27 07:08:59;;;;;;;4.70;4.40;;;23.90;99.90;;;;;;5084241;28;20535;-63
2022/06/27 07:11:32;;;;;;;5.93;4.63;;;23.80;99.90;;;;;;5080501;28;20483;-64
2022/06/27 07:14:05;;;;;;;5.47;4.70;;;23.90;99.90;;;;;;5083259;28;20494;-63
2022/06/27 07:16:37;;;;;;;4.90;4.60;;;23.90;99.90;;;;;;5083492;28;20456;-63
2022/06/27 07:19:09;;;;;;;4.80;4.03;;;23.80;99.90;;;;;;5083670;28;20528;-63
2022/06/27 07:21:39;;;;;;;4.70;4.30;;;23.80;99.90;;;;;;5071265;28;20466;-63
2022/06/27 07:24:10;;;;;;;4.60;4.30;;;23.80;99.90;;;;;;5081970;28;20481;-62
2022/06/27 07:26:41;;;;;;;4.83;4.50;;;23.70;99.90;;;;;;5083530;28;20479;-63
2022/06/27 07:29:14;;;;;;;4.70;4.43;;;23.70;99.90;;;;;;5083267;28;20459;-63
2022/06/27 07:31:45;;;;;;;4.47;4.17;;;23.70;99.90;;;;;;5083114;28;20466;-63
2022/06/27 07:34:19;;;;;;;4.93;4.53;;;23.70;99.90;;;;;;5083403;28;20578;-62
2022/06/27 07:36:56;;;;;;;4.70;4.40;;;23.60;99.90;;;;;;5082439;28;20448;-63
2022/06/27 07:39:27;;;;;;;5.00;4.63;;;23.60;99.90;;;;;;5082501;28;20982;-63
2022/06/27 07:41:59;;;;;;;4.73;4.43;;;23.60;99.90;;;;;;5082467;28;20463;-63
2022/06/27 07:44:34;;;;;;;6.47;5.97;;;23.50;99.90;;;;;;5080211;28;20466;-63
2022/06/27 07:47:05;;;;;;;8.50;7.70;;;23.50;99.90;;;;;;5082145;28;20466;-63
2022/06/27 07:49:36;;;;;;;8.53;7.83;;;23.40;99.90;;;;;;5083236;28;20474;-63
2022/06/27 07:52:07;;;;;;;9.87;8.97;;;23.30;99.90;;;;;;5082782;28;20458;-63
2022/06/27 07:54:38;;;;;;;9.57;8.73;;;23.20;99.90;;;;;;5082651;28;20494;-63
2022/06/27 07:57:10;;;;;;;8.40;7.70;;;23.10;99.90;;;;;;5083036;28;20465;-63
2022/06/27 07:59:44;;;;;;;7.10;6.47;;;23.10;99.90;;;;;;5082229;28;20467;-63
2022/06/27 08:02:14;;;;;;;5.23;4.83;;;23.00;99.90;;;;;;5082340;28;20459;-63
2022/06/27 08:04:45;;;;;;;5.63;5.23;;;22.90;99.90;;;;;;5081732;28;20495;-63
2022/06/27 08:07:16;;;;;;;5.60;5.20;;;22.90;99.90;;;;;;5082149;28;20474;-63
2022/06/27 08:09:47;;;;;;;4.83;4.43;;;22.80;99.90;;;;;;5082632;28;20470;-64
2022/06/27 08:12:18;;;;;;;5.23;4.83;;;22.80;99.90;;;;;;5082753;28;20530;-63
2022/06/27 08:14:50;;;;;;;4.97;4.57;;;22.80;99.90;;;;;;5082742;28;20448;-63
2022/06/27 08:17:23;;;;;;;5.83;5.30;;;22.80;99.90;;;;;;5070485;28;20455;-63
2022/06/27 08:19:54;;;;;;;4.83;4.43;;;22.80;99.90;;;;;;5081746;28;20463;-63
2022/06/27 08:22:25;;;;;;;4.60;4.30;;;22.80;99.90;;;;;;5082277;28;20551;-63
2022/06/27 08:24:57;;;;;;;4.30;4.00;;;22.70;99.90;;;;;;5081644;28;20491;-63
2022/06/27 08:27:28;;;;;;;4.53;4.20;;;22.80;99.90;;;;;;5082676;28;20470;-63
2022/06/27 08:30:01;;;;;;;4.93;4.53;;;22.70;99.90;;;;;;5082269;28;20577;-63
2022/06/27 08:32:31;;;;;;;4.57;4.17;;;22.60;99.90;;;;;;5082144;28;20466;-63
2022/06/27 08:35:03;;;;;;;4.97;4.57;;;22.60;99.90;;;;;;5080412;28;20819;-63
2022/06/27 08:37:33;;;;;;;4.07;3.77;;;22.60;99.90;;;;;;5082459;28;20460;-63
2022/06/27 08:40:06;;;;;;;4.70;4.30;;;22.50;99.90;;;;;;5081489;28;20474;-63
2022/06/27 08:42:37;;;;;;;4.17;3.77;;;22.50;99.90;;;;;;5081821;28;20515;-62
2022/06/27 08:45:12;;;;;;;4.10;3.80;;;22.50;99.90;;;;;;5082513;28;20606;-64
2022/06/27 08:47:43;;;;;;;3.83;3.53;;;22.40;99.90;;;;;;5066788;28;20464;-63
2022/06/27 08:50:15;;;;;;;4.23;3.90;;;22.30;99.90;;;;;;5080695;28;20463;-63
2022/06/27 08:52:51;;;;;;;5.10;3.10;;;22.30;99.90;;;;;;5081238;28;20475;-63
2022/06/27 08:55:22;;;;;;;3.03;2.83;;;22.50;99.90;;;;;;5082409;28;20459;-63
2022/06/27 08:57:53;;;;;;;4.13;3.83;;;22.50;99.90;;;;;;5075323;28;20912;-63
2022/06/27 09:00:26;;;;;;;3.97;3.67;;;22.50;99.90;;;;;;5080461;28;20522;-64
2022/06/27 09:02:57;;;;;;;4.70;3.27;;;22.50;99.90;;;;;;5081897;28;20781;-63
2022/06/27 09:05:31;;;;;;;3.73;3.43;;;22.50;99.90;;;;;;5080202;28;20495;-63
2022/06/27 09:08:04;;;;;;;3.40;3.13;;;22.40;99.90;;;;;;5082064;28;20471;-63
2022/06/27 09:10:36;;;;;;;5.43;3.50;;;22.30;99.90;;;;;;5081466;28;20471;-62
2022/06/27 09:13:09;;;;;;;3.67;3.33;;;22.30;99.90;;;;;;5080676;28;20466;-63
2022/06/27 09:15:52;;;;;;;4.47;3.70;;;22.20;99.90;;;;;;5079397;28;20459;-63
2022/06/27 09:18:25;;;;;;;4.10;3.70;;;22.10;99.90;;;;;;5082449;28;20471;-63
2022/06/27 09:20:58;;;;;;;3.57;3.37;;;22.00;99.90;;;;;;5078795;28;20906;-63
2022/06/27 09:23:40;;;;;;;3.80;3.50;;;21.90;99.90;;;;;;5080063;28;20914;-63
2022/06/27 09:26:14;;;;;;;3.77;3.57;;;21.90;99.90;;;;;;5081582;28;20501;-63
2022/06/27 09:28:48;;;;;;;3.83;3.53;;;21.80;99.90;;;;;;5081217;28;20463;-63
2022/06/27 09:31:39;;;;;;;3.10;2.90;;;21.80;99.90;;;;;;5081804;28;20486;-63
2022/06/27 09:34:16;;;;;;;4.00;3.70;;;21.80;99.90;;;;;;5081355;28;20529;-63
2022/06/27 09:36:51;;;;;;;3.27;2.97;;;21.80;99.90;;;;;;5081312;28;20439;-63
2022/06/27 09:39:24;;;;;;;4.10;3.80;;;21.70;99.90;;;;;;5081352;28;20451;-63
2022/06/27 09:42:01;;;;;;;3.03;2.73;;;21.70;99.90;;;;;;5070532;28;20473;-63
2022/06/27 09:44:32;;;;;;;3.30;3.00;;;21.70;99.90;;;;;;5081368;28;20466;-63
2022/06/27 09:47:11;;;;;;;3.07;2.87;;;21.70;99.90;;;;;;5079959;28;20490;-63
2022/06/27 09:49:44;;;;;;;3.07;2.90;;;21.70;99.90;;;;;;5072563;28;20487;-63
2022/06/27 09:52:17;;;;;;;3.00;2.80;;;21.70;99.90;;;;;;5080738;28;20466;-63
2022/06/27 09:54:49;;;;;;;3.83;3.53;;;21.50;99.90;;;;;;5080831;28;20459;-63
2022/06/27 09:57:21;;;;;;;2.73;2.53;;;21.40;99.90;;;;;;5074641;28;20463;-63
2022/06/27 09:59:53;;;;;;;3.00;2.67;;;21.30;99.90;;;;;;5075344;28;20539;-63
2022/06/27 10:02:25;;;;;;;3.30;3.10;;;21.30;99.90;;;;;;5081379;28;20464;-63
2022/06/27 10:04:57;;;;;;;3.97;3.60;;;21.20;99.90;;;;;;5080421;28;20555;-63
2022/06/27 10:07:29;;;;;;;3.20;2.90;;;21.20;99.90;;;;;;5080654;28;20529;-63
2022/06/27 10:10:00;;;;;;;2.90;2.70;;;21.20;99.90;;;;;;5080738;28;20455;-63
2022/06/27 10:12:32;;;;;;;2.80;2.60;;;21.20;99.90;;;;;;5084713;28;20479;-63
2022/06/27 10:15:23;;;;;;;3.07;2.80;;;21.20;99.90;;;;;;5084482;28;20605;-63
2022/06/27 10:17:58;;;;;;;3.23;2.93;;;21.10;99.90;;;;;;5085705;28;20473;-63
2022/06/27 10:20:39;;;;;;;4.07;3.50;;;21.00;99.90;;;;;;5083510;28;20463;-63
2022/06/27 10:23:26;;;;;;;3.07;2.87;;;21.00;99.90;;;;;;5082526;28;20486;-63
2022/06/27 10:25:57;;;;;;;3.20;2.83;;;20.90;99.90;;;;;;5079955;28;20483;-63
2022/06/27 10:28:28;;;;;;;3.23;2.93;;;20.80;99.90;;;;;;5085260;28;20455;-63
2022/06/27 10:31:01;;;;;;;3.13;2.87;;;20.80;99.90;;;;;;5084389;28;20987;-63
2022/06/27 10:33:41;;;;;;;3.17;2.87;;;20.80;99.90;;;;;;5083855;28;21010;-63
2022/06/27 10:36:18;;;;;;;2.70;2.50;;;20.70;99.90;;;;;;5078353;28;20434;-63
2022/06/27 10:39:01;;;;;;;4.33;3.30;;;20.70;99.90;;;;;;5077944;28;20478;-63
2022/06/27 10:41:42;;;;;;;3.43;3.13;;;20.70;99.90;;;;;;5083119;28;20466;-64
2022/06/27 10:44:35;;;;;;;3.13;2.83;;;20.70;99.90;;;;;;5084109;28;20434;-64
2022/06/27 10:47:34;;;;;;;2.83;2.63;;;20.70;99.90;;;;;;5083812;28;20543;-64
2022/06/27 10:50:17;;;;;;;3.50;2.97;;;20.60;99.90;;;;;;5076215;28;20471;-64
2022/06/27 10:52:48;;;;;;;5.63;3.27;;;20.60;99.90;;;;;;5085361;28;20444;-63
2022/06/27 10:55:26;;;;;;;3.17;2.97;;;20.60;99.90;;;;;;5083793;28;20473;-64
2022/06/27 10:57:57;;;;;;;5.00;3.17;;;20.50;99.90;;;;;;5082375;28;20455;-63
2022/06/27 11:00:49;;;;;;;3.07;2.87;;;20.50;99.90;;;;;;5082892;28;20446;-63
2022/06/27 11:03:24;;;;;;;3.30;3.10;;;20.40;99.90;;;;;;5084282;28;20440;-64
2022/06/27 11:06:00;;;;;;;4.47;3.10;;;20.40;99.90;;;;;;5082375;28;20493;-63
2022/06/27 11:08:33;;;;;;;3.20;3.00;;;20.40;99.90;;;;;;5083727;28;20458;-64
2022/06/27 11:11:04;;;;;;;3.97;3.20;;;20.30;99.90;;;;;;5084206;28;20508;-63
2022/06/27 11:13:46;;;;;;;2.90;2.63;;;20.20;99.90;;;;;;5084378;28;20792;-63
2022/06/27 11:16:19;;;;;;;3.50;3.20;;;20.20;99.90;;;;;;5082991;28;20455;-64
2022/06/27 11:18:52;;;;;;;3.13;2.93;;;20.20;99.90;;;;;;5083640;28;20954;-63
2022/06/27 11:21:26;;;;;;;3.50;3.10;;;20.20;99.90;;;;;;5082942;28;20470;-63
2022/06/27 11:23:59;;;;;;;3.80;3.40;;;20.30;99.90;;;;;;5082011;28;20493;-63
2022/06/27 11:26:32;;;;;;;3.47;3.17;;;20.20;99.90;;;;;;5083082;28;20470;-63
2022/06/27 11:32:03;;;;;;;3.23;3.03;;;20.10;99.90;;;;;;5075940;28;20449;-64
2022/06/27 11:34:41;;;;;;;3.40;3.10;;;20.10;99.90;;;;;;5082708;28;20517;-63
2022/06/27 11:37:16;;;;;;;3.03;2.73;;;20.00;99.90;;;;;;5083182;28;20475;-63
2022/06/27 11:40:00;;;;;;;4.50;3.63;;;20.00;99.90;;;;;;5082432;28;20440;-63
2022/06/27 11:42:31;;;;;;;2.80;2.60;;;19.90;99.90;;;;;;5083638;28;20438;-64
2022/06/27 11:45:07;;;;;;;3.03;2.83;;;19.90;99.90;;;;;;5082998;28;20746;-63
2022/06/27 11:47:40;;;;;;;3.50;3.20;;;19.90;99.90;;;;;;5084005;28;20490;-63
2022/06/27 11:50:13;;;;;;;3.77;2.97;;;19.80;99.90;;;;;;5082346;28;20449;-63
2022/06/27 11:52:47;;;;;;;4.37;3.63;;;19.70;99.90;;;;;;5083404;28;21042;-63
2022/06/27 11:55:19;;;;;;;3.40;3.20;;;19.70;99.90;;;;;;5082309;28;20503;-63
2022/06/27 11:57:51;;;;;;;3.30;3.00;;;19.70;99.90;;;;;;5083031;28;20833;-63
2022/06/27 12:00:24;;;;;;;4.00;3.47;;;19.70;99.90;;;;;;5083202;28;20460;-63
2022/06/27 12:03:02;;;;;;;3.13;2.93;;;19.60;99.90;;;;;;5083256;28;20430;-63
2022/06/27 12:05:33;;;;;;;3.10;2.90;;;19.70;99.90;;;;;;5082934;28;20462;-62
2022/06/27 12:08:09;;;;;;;3.23;2.93;;;19.70;99.90;;;;;;5083387;28;20483;-63
2022/06/27 12:10:44;;;;;;;3.27;3.00;;;19.60;99.90;;;;;;5078383;28;20457;-63
2022/06/27 12:13:16;;;;;;;5.17;3.33;;;19.60;99.90;;;;;;5083514;28;20571;-62
2022/06/27 12:15:49;;;;;;;3.50;2.87;;;19.60;99.90;;;;;;5082380;28;20466;-63
2022/06/27 12:18:20;;;;;;;3.47;3.20;;;19.60;99.90;;;;;;5082388;28;20422;-64
2022/06/27 12:20:50;;;;;;;3.77;3.47;;;19.50;99.90;;;;;;5083019;28;20435;-63
2022/06/27 12:23:23;;;;;;;3.83;3.53;;;19.50;99.90;;;;;;5081570;28;20487;-62
2022/06/27 12:25:54;;;;;;;3.07;2.83;;;19.50;99.90;;;;;;5082652;28;20438;-62
2022/06/27 12:28:25;;;;;;;3.90;3.60;;;19.50;99.90;;;;;;5082180;28;20498;-63
2022/06/27 12:30:56;;;;;;;3.53;3.10;;;19.40;99.90;;;;;;5081665;28;20459;-63
2022/06/27 12:33:27;;;;;;;3.47;3.17;;;19.50;99.90;;;;;;5083181;28;20455;-63
2022/06/27 12:35:57;;;;;;;4.40;4.00;;;19.50;99.90;;;;;;5081624;28;20451;-63
2022/06/27 12:38:30;;;;;;;3.67;3.27;;;19.50;99.90;;;;;;5081582;28;20534;-64
2022/06/27 12:41:14;;;;;;;4.47;3.67;;;19.40;99.90;;;;;;5081663;28;20464;-64
2022/06/27 12:43:46;;;;;;;3.73;3.43;;;19.40;99.90;;;;;;5081824;28;20459;-63
2022/06/27 12:46:18;;;;;;;3.57;3.27;;;19.30;99.90;;;;;;5079311;28;20441;-63
2022/06/27 12:48:49;;;;;;;3.47;3.17;;;19.40;99.90;;;;;;5082621;28;20498;-64
2022/06/27 12:51:20;;;;;;;4.77;3.73;;;19.30;99.90;;;;;;5081522;28;20464;-63
2022/06/27 12:53:54;;;;;;;4.07;3.77;;;19.40;99.90;;;;;;5081187;28;20438;-63
2022/06/27 12:56:25;;;;;;;3.43;3.13;;;19.30;99.90;;;;;;5073822;28;20467;-63
2022/06/27 12:58:56;;;;;;;3.87;3.50;;;19.30;99.90;;;;;;5079178;28;20453;-63
2022/06/27 13:01:27;;;;;;;4.07;3.70;;;19.30;99.90;;;;;;5081318;28;20469;-63
2022/06/27 13:03:59;;;;;;;4.33;3.93;;;19.20;99.90;;;;;;5082347;28;20520;-64
2022/06/27 13:06:30;;;;;;;4.67;4.37;;;19.20;99.90;;;;;;5080706;28;20515;-62
2022/06/27 13:09:02;;;;;;;3.43;3.23;;;19.30;99.90;;;;;;5073717;28;20524;-63
2022/06/27 13:11:33;;;;;;;4.50;4.10;;;19.30;99.90;;;;;;5081419;28;20434;-63
2022/06/27 13:14:05;;;;;;;8.13;5.30;;;19.40;99.90;;;;;;5082089;28;20433;-63
2022/06/27 13:16:36;;;;;;;4.67;4.27;;;19.40;99.90;;;;;;5079954;28;21483;-64
2022/06/27 13:19:07;;;;;;;5.27;4.30;;;19.40;99.90;;;;;;5076110;28;20448;-63
2022/06/27 13:21:37;;;;;;;5.40;5.10;;;19.50;99.90;;;;;;5081888;28;20448;-63